sensor_id;sensor_type;location;lat;lon;timestamp;temperature;humidity
14031;DHT22;7090;49.436;8.490;2023-06-14T00:00:07;19.60;99.90
14031;DHT22;7090;49.436;8.490;2023-06-14T00:02:33;19.50;99.90
14031;DHT22;7090;49.436;8.490;2023-06-14T00:04:58;19.40;99.90
14031;DHT22;7090;49.436;8.490;2023-06-14T00:07:37;19.30;99.90
14031;DHT22;7090;49.436;8.490;2023-06-14T00:10:04;19.00;99.90
14031;DHT22;7090;49.436;8.490;2023-06-14T00:12:30;18.80;99.90
14031;DHT22;7090;49.436;8.490;2023-06-14T00:14:56;18.70;99.90
14031;DHT22;7090;49.436;8.490;2023-06-14T00:17:22;18.40;99.90
14031;DHT22;7090;49.436;8.490;2023-06-14T00:19:48;18.10;99.90
14031;DHT22;7090;49.436;8.490;2023-06-14T00:22:14;17.90;1.00
14031;DHT22;7090;49.436;8.490;2023-06-14T00:24:39;17.70;1.00
14031;DHT22;7090;49.436;8.490;2023-06-14T00:27:05;17.50;99.90
14031;DHT22;7090;49.436;8.490;2023-06-14T00:29:30;17.20;1.00
14031;DHT22;7090;49.436;8.490;2023-06-14T00:31:56;17.00;1.00
14031;DHT22;7090;49.436;8.490;2023-06-14T00:34:22;17.00;1.00
14031;DHT22;7090;49.436;8.490;2023-06-14T00:36:47;16.90;1.00
14031;DHT22;7090;49.436;8.490;2023-06-14T00:39:13;16.80;1.00
14031;DHT22;7090;49.436;8.490;2023-06-14T00:41:39;16.70;1.00
14031;DHT22;7090;49.436;8.490;2023-06-14T00:44:05;16.60;1.00
14031;DHT22;7090;49.436;8.490;2023-06-14T00:46:30;16.50;1.00
14031;DHT22;7090;49.436;8.490;2023-06-14T00:48:58;16.40;1.00
14031;DHT22;7090;49.436;8.490;2023-06-14T00:51:25;16.40;1.00
14031;DHT22;7090;49.436;8.490;2023-06-14T00:53:51;16.30;46.40
14031;DHT22;7090;49.436;8.490;2023-06-14T00:56:17;16.20;1.00
14031;DHT22;7090;49.436;8.490;2023-06-14T00:58:46;16.20;1.00
14031;DHT22;7090;49.436;8.490;2023-06-14T01:01:11;16.20;1.00
14031;DHT22;7090;49.436;8.490;2023-06-14T01:03:37;16.10;1.00
14031;DHT22;7090;49.436;8.490;2023-06-14T01:06:18;16.00;99.90
14031;DHT22;7090;49.436;8.490;2023-06-14T01:09:15;15.90;1.00
14031;DHT22;7090;49.436;8.490;2023-06-14T01:12:11;15.80;1.00
14031;DHT22;7090;49.436;8.490;2023-06-14T01:14:39;15.70;1.00
14031;DHT22;7090;49.436;8.490;2023-06-14T01:17:05;15.70;1.00
14031;DHT22;7090;49.436;8.490;2023-06-14T01:19:33;15.70;1.00
14031;DHT22;7090;49.436;8.490;2023-06-14T01:22:01;15.60;1.00
14031;DHT22;7090;49.436;8.490;2023-06-14T01:24:27;15.60;99.90
14031;DHT22;7090;49.436;8.490;2023-06-14T01:26:59;15.80;1.00
14031;DHT22;7090;49.436;8.490;2023-06-14T01:29:25;15.80;1.00
14031;DHT22;7090;49.436;8.490;2023-06-14T01:31:53;15.80;99.90
14031;DHT22;7090;49.436;8.490;2023-06-14T01:34:19;15.80;1.00
14031;DHT22;7090;49.436;8.490;2023-06-14T01:36:45;15.80;1.00
14031;DHT22;7090;49.436;8.490;2023-06-14T01:39:14;15.80;99.90
14031;DHT22;7090;49.436;8.490;2023-06-14T01:41:41;15.80;99.90
14031;DHT22;7090;49.436;8.490;2023-06-14T01:44:08;15.80;99.90
14031;DHT22;7090;49.436;8.490;2023-06-14T01:46:35;15.80;99.90
14031;DHT22;7090;49.436;8.490;2023-06-14T01:49:01;15.80;5.40
14031;DHT22;7090;49.436;8.490;2023-06-14T01:51:27;15.80;1.00
14031;DHT22;7090;49.436;8.490;2023-06-14T01:53:53;15.80;1.00
14031;DHT22;7090;49.436;8.490;2023-06-14T01:56:18;15.70;1.00
14031;DHT22;7090;49.436;8.490;2023-06-14T01:58:44;15.70;1.00
14031;DHT22;7090;49.436;8.490;2023-06-14T02:01:10;15.80;1.00
14031;DHT22;7090;49.436;8.490;2023-06-14T02:03:36;15.70;1.00
14031;DHT22;7090;49.436;8.490;2023-06-14T02:06:03;15.70;1.00
14031;DHT22;7090;49.436;8.490;2023-06-14T02:08:29;15.70;1.00
14031;DHT22;7090;49.436;8.490;2023-06-14T02:10:54;15.70;1.00
14031;DHT22;7090;49.436;8.490;2023-06-14T02:13:20;15.70;99.90
14031;DHT22;7090;49.436;8.490;2023-06-14T02:15:45;15.70;1.00
14031;DHT22;7090;49.436;8.490;2023-06-14T02:18:12;15.80;99.90
14031;DHT22;7090;49.436;8.490;2023-06-14T02:20:37;15.90;1.00
14031;DHT22;7090;49.436;8.490;2023-06-14T02:23:03;16.00;99.90
14031;DHT22;7090;49.436;8.490;2023-06-14T02:25:29;16.20;99.90
14031;DHT22;7090;49.436;8.490;2023-06-14T02:27:54;16.30;1.00
14031;DHT22;7090;49.436;8.490;2023-06-14T02:30:21;16.50;1.00
14031;DHT22;7090;49.436;8.490;2023-06-14T02:32:46;16.60;1.00
14031;DHT22;7090;49.436;8.490;2023-06-14T02:35:14;16.70;1.00
14031;DHT22;7090;49.436;8.490;2023-06-14T02:37:40;16.80;86.30
14031;DHT22;7090;49.436;8.490;2023-06-14T02:40:06;16.80;1.00
14031;DHT22;7090;49.436;8.490;2023-06-14T02:42:32;16.80;99.90
14031;DHT22;7090;49.436;8.490;2023-06-14T02:44:57;16.80;99.90
14031;DHT22;7090;49.436;8.490;2023-06-14T02:47:23;16.80;1.00
14031;DHT22;7090;49.436;8.490;2023-06-14T02:49:49;16.70;1.00
14031;DHT22;7090;49.436;8.490;2023-06-14T02:52:15;16.70;1.00
14031;DHT22;7090;49.436;8.490;2023-06-14T02:54:41;16.60;1.00
14031;DHT22;7090;49.436;8.490;2023-06-14T02:57:07;16.50;99.90
14031;DHT22;7090;49.436;8.490;2023-06-14T02:59:34;16.50;99.90
14031;DHT22;7090;49.436;8.490;2023-06-14T03:01:59;16.40;1.00
14031;DHT22;7090;49.436;8.490;2023-06-14T03:04:25;16.30;99.90
14031;DHT22;7090;49.436;8.490;2023-06-14T03:06:52;16.20;1.00
14031;DHT22;7090;49.436;8.490;2023-06-14T03:09:19;16.10;1.00
14031;DHT22;7090;49.436;8.490;2023-06-14T03:11:45;16.10;1.00
14031;DHT22;7090;49.436;8.490;2023-06-14T03:14:10;16.00;1.00
14031;DHT22;7090;49.436;8.490;2023-06-14T03:16:37;15.90;1.00
14031;DHT22;7090;49.436;8.490;2023-06-14T03:19:02;15.90;1.00
14031;DHT22;7090;49.436;8.490;2023-06-14T03:21:28;15.80;1.00
14031;DHT22;7090;49.436;8.490;2023-06-14T03:23:54;15.90;99.90
14031;DHT22;7090;49.436;8.490;2023-06-14T03:26:20;15.80;99.90
14031;DHT22;7090;49.436;8.490;2023-06-14T03:28:46;15.90;99.90
14031;DHT22;7090;49.436;8.490;2023-06-14T03:31:12;15.80;99.90
14031;DHT22;7090;49.436;8.490;2023-06-14T03:33:38;15.90;99.90
14031;DHT22;7090;49.436;8.490;2023-06-14T03:36:04;15.80;99.90
14031;DHT22;7090;49.436;8.490;2023-06-14T03:38:30;15.90;99.90
14031;DHT22;7090;49.436;8.490;2023-06-14T03:40:56;15.90;99.90
14031;DHT22;7090;49.436;8.490;2023-06-14T03:43:22;15.90;99.90
14031;DHT22;7090;49.436;8.490;2023-06-14T03:45:47;16.00;99.90
14031;DHT22;7090;49.436;8.490;2023-06-14T03:48:13;16.00;99.90
14031;DHT22;7090;49.436;8.490;2023-06-14T03:50:38;16.00;99.90
14031;DHT22;7090;49.436;8.490;2023-06-14T03:53:04;16.00;99.90
14031;DHT22;7090;49.436;8.490;2023-06-14T03:55:30;16.10;33.60
14031;DHT22;7090;49.436;8.490;2023-06-14T03:57:59;16.10;1.00
14031;DHT22;7090;49.436;8.490;2023-06-14T04:00:25;16.20;1.00
14031;DHT22;7090;49.436;8.490;2023-06-14T04:02:51;16.40;1.00
14031;DHT22;7090;49.436;8.490;2023-06-14T04:05:17;16.60;1.00
14031;DHT22;7090;49.436;8.490;2023-06-14T04:07:47;17.10;1.00
14031;DHT22;7090;49.436;8.490;2023-06-14T04:10:14;17.40;1.00
14031;DHT22;7090;49.436;8.490;2023-06-14T04:12:41;17.90;99.90
14031;DHT22;7090;49.436;8.490;2023-06-14T04:15:07;18.20;97.70
14031;DHT22;7090;49.436;8.490;2023-06-14T04:17:34;18.50;38.80
14031;DHT22;7090;49.436;8.490;2023-06-14T04:20:01;18.90;1.00
14031;DHT22;7090;49.436;8.490;2023-06-14T04:22:27;19.30;1.00
14031;DHT22;7090;49.436;8.490;2023-06-14T04:24:55;19.50;28.50
14031;DHT22;7090;49.436;8.490;2023-06-14T04:27:22;19.70;1.00
14031;DHT22;7090;49.436;8.490;2023-06-14T04:29:54;19.80;1.00
14031;DHT22;7090;49.436;8.490;2023-06-14T04:32:24;20.00;15.10
14031;DHT22;7090;49.436;8.490;2023-06-14T04:34:54;20.20;1.00
14031;DHT22;7090;49.436;8.490;2023-06-14T04:37:20;20.30;1.00
14031;DHT22;7090;49.436;8.490;2023-06-14T04:39:47;20.80;1.00
14031;DHT22;7090;49.436;8.490;2023-06-14T04:42:13;21.00;1.00
14031;DHT22;7090;49.436;8.490;2023-06-14T04:44:41;21.20;1.00
14031;DHT22;7090;49.436;8.490;2023-06-14T04:47:07;21.40;1.00
14031;DHT22;7090;49.436;8.490;2023-06-14T04:49:32;21.70;1.00
14031;DHT22;7090;49.436;8.490;2023-06-14T04:51:59;22.00;1.00
14031;DHT22;7090;49.436;8.490;2023-06-14T04:54:27;22.40;9.70
14031;DHT22;7090;49.436;8.490;2023-06-14T04:56:53;22.80;1.00
14031;DHT22;7090;49.436;8.490;2023-06-14T04:59:21;22.70;1.00
14031;DHT22;7090;49.436;8.490;2023-06-14T05:01:49;23.20;99.90
14031;DHT22;7090;49.436;8.490;2023-06-14T05:04:18;23.70;99.90
14031;DHT22;7090;49.436;8.490;2023-06-14T05:06:44;23.40;1.00
14031;DHT22;7090;49.436;8.490;2023-06-14T05:09:13;22.90;1.00
14031;DHT22;7090;49.436;8.490;2023-06-14T05:11:40;22.90;99.90
14031;DHT22;7090;49.436;8.490;2023-06-14T05:14:12;22.20;1.00
14031;DHT22;7090;49.436;8.490;2023-06-14T05:16:38;22.00;1.00
14031;DHT22;7090;49.436;8.490;2023-06-14T05:19:04;22.30;1.00
14031;DHT22;7090;49.436;8.490;2023-06-14T05:21:31;21.90;1.00
14031;DHT22;7090;49.436;8.490;2023-06-14T05:23:59;21.70;1.00
14031;DHT22;7090;49.436;8.490;2023-06-14T05:26:24;21.60;1.00
14031;DHT22;7090;49.436;8.490;2023-06-14T05:28:57;21.70;1.00
14031;DHT22;7090;49.436;8.490;2023-06-14T05:31:24;21.60;1.00
14031;DHT22;7090;49.436;8.490;2023-06-14T05:33:50;21.90;1.00
14031;DHT22;7090;49.436;8.490;2023-06-14T05:36:16;22.00;99.90
14031;DHT22;7090;49.436;8.490;2023-06-14T05:38:42;22.50;99.90
14031;DHT22;7090;49.436;8.490;2023-06-14T05:41:07;22.70;1.00
14031;DHT22;7090;49.436;8.490;2023-06-14T05:43:33;22.90;1.00
14031;DHT22;7090;49.436;8.490;2023-06-14T05:45:58;22.90;99.90
14031;DHT22;7090;49.436;8.490;2023-06-14T05:48:24;23.50;1.00
14031;DHT22;7090;49.436;8.490;2023-06-14T05:50:49;23.40;99.90
14031;DHT22;7090;49.436;8.490;2023-06-14T05:53:15;23.10;31.60
14031;DHT22;7090;49.436;8.490;2023-06-14T05:55:40;23.20;1.00
14031;DHT22;7090;49.436;8.490;2023-06-14T05:58:06;23.10;1.00
14031;DHT22;7090;49.436;8.490;2023-06-14T06:00:32;23.00;1.00
14031;DHT22;7090;49.436;8.490;2023-06-14T06:02:58;23.30;1.00
14031;DHT22;7090;49.436;8.490;2023-06-14T06:05:24;23.30;99.90
14031;DHT22;7090;49.436;8.490;2023-06-14T06:07:50;23.80;99.90
14031;DHT22;7090;49.436;8.490;2023-06-14T06:10:16;24.40;99.90
14031;DHT22;7090;49.436;8.490;2023-06-14T06:12:42;24.80;99.90
14031;DHT22;7090;49.436;8.490;2023-06-14T06:15:08;24.50;99.90
14031;DHT22;7090;49.436;8.490;2023-06-14T06:17:37;24.90;99.90
14031;DHT22;7090;49.436;8.490;2023-06-14T06:20:04;25.20;99.90
14031;DHT22;7090;49.436;8.490;2023-06-14T06:22:31;25.40;99.90
14031;DHT22;7090;49.436;8.490;2023-06-14T06:24:56;25.60;99.90
14031;DHT22;7090;49.436;8.490;2023-06-14T06:27:22;25.70;99.90
14031;DHT22;7090;49.436;8.490;2023-06-14T06:29:47;25.40;99.90
14031;DHT22;7090;49.436;8.490;2023-06-14T06:32:15;25.20;99.90
14031;DHT22;7090;49.436;8.490;2023-06-14T06:34:40;25.50;1.00
14031;DHT22;7090;49.436;8.490;2023-06-14T06:37:06;25.50;1.00
14031;DHT22;7090;49.436;8.490;2023-06-14T06:39:31;25.40;1.00
14031;DHT22;7090;49.436;8.490;2023-06-14T06:41:57;25.40;1.00
14031;DHT22;7090;49.436;8.490;2023-06-14T06:44:23;25.60;1.00
14031;DHT22;7090;49.436;8.490;2023-06-14T06:46:48;25.50;1.00
14031;DHT22;7090;49.436;8.490;2023-06-14T06:49:14;26.00;1.00
14031;DHT22;7090;49.436;8.490;2023-06-14T06:51:42;26.20;1.00
14031;DHT22;7090;49.436;8.490;2023-06-14T06:54:08;25.60;1.00
14031;DHT22;7090;49.436;8.490;2023-06-14T06:56:35;25.10;1.00
14031;DHT22;7090;49.436;8.490;2023-06-14T06:59:01;25.80;1.00
14031;DHT22;7090;49.436;8.490;2023-06-14T07:01:26;25.70;1.00
14031;DHT22;7090;49.436;8.490;2023-06-14T07:03:54;26.40;1.00
14031;DHT22;7090;49.436;8.490;2023-06-14T07:06:20;26.60;1.00
14031;DHT22;7090;49.436;8.490;2023-06-14T07:08:46;27.00;99.90
14031;DHT22;7090;49.436;8.490;2023-06-14T07:11:14;27.40;99.90
14031;DHT22;7090;49.436;8.490;2023-06-14T07:13:39;27.10;99.90
14031;DHT22;7090;49.436;8.490;2023-06-14T07:16:05;27.00;99.90
14031;DHT22;7090;49.436;8.490;2023-06-14T07:18:31;27.40;99.90
14031;DHT22;7090;49.436;8.490;2023-06-14T07:20:57;27.60;99.90
14031;DHT22;7090;49.436;8.490;2023-06-14T07:23:23;27.40;99.90
14031;DHT22;7090;49.436;8.490;2023-06-14T07:25:49;26.60;99.90
14031;DHT22;7090;49.436;8.490;2023-06-14T07:28:16;26.50;99.90
14031;DHT22;7090;49.436;8.490;2023-06-14T07:30:42;25.80;99.90
14031;DHT22;7090;49.436;8.490;2023-06-14T07:33:07;25.70;99.90
14031;DHT22;7090;49.436;8.490;2023-06-14T07:35:34;25.90;99.90
14031;DHT22;7090;49.436;8.490;2023-06-14T07:37:59;25.90;99.90
14031;DHT22;7090;49.436;8.490;2023-06-14T07:40:25;25.90;39.30
14031;DHT22;7090;49.436;8.490;2023-06-14T07:42:50;26.00;71.00
14031;DHT22;7090;49.436;8.490;2023-06-14T07:45:16;25.30;88.90
14031;DHT22;7090;49.436;8.490;2023-06-14T07:47:42;24.80;24.40
14031;DHT22;7090;49.436;8.490;2023-06-14T07:50:08;24.60;99.90
14031;DHT22;7090;49.436;8.490;2023-06-14T07:52:34;25.20;99.90
14031;DHT22;7090;49.436;8.490;2023-06-14T07:55:00;26.10;99.90
14031;DHT22;7090;49.436;8.490;2023-06-14T07:57:25;26.30;99.90
14031;DHT22;7090;49.436;8.490;2023-06-14T07:59:51;26.20;49.00
14031;DHT22;7090;49.436;8.490;2023-06-14T08:02:17;26.20;6.20
14031;DHT22;7090;49.436;8.490;2023-06-14T08:04:43;25.80;48.20
14031;DHT22;7090;49.436;8.490;2023-06-14T08:07:09;25.80;1.00
14031;DHT22;7090;49.436;8.490;2023-06-14T08:09:35;26.30;1.00
14031;DHT22;7090;49.436;8.490;2023-06-14T08:12:04;26.40;1.00
14031;DHT22;7090;49.436;8.490;2023-06-14T08:14:33;26.40;85.40
14031;DHT22;7090;49.436;8.490;2023-06-14T08:16:58;26.70;1.00
14031;DHT22;7090;49.436;8.490;2023-06-14T08:19:24;27.20;3.80
14031;DHT22;7090;49.436;8.490;2023-06-14T08:21:49;27.70;1.00
14031;DHT22;7090;49.436;8.490;2023-06-14T08:24:15;27.60;37.50
14031;DHT22;7090;49.436;8.490;2023-06-14T08:26:41;27.70;99.90
14031;DHT22;7090;49.436;8.490;2023-06-14T08:29:07;27.80;99.90
14031;DHT22;7090;49.436;8.490;2023-06-14T08:31:33;26.60;54.60
14031;DHT22;7090;49.436;8.490;2023-06-14T08:33:59;26.90;1.00
14031;DHT22;7090;49.436;8.490;2023-06-14T08:36:25;27.40;21.60
14031;DHT22;7090;49.436;8.490;2023-06-14T08:38:50;27.20;99.90
14031;DHT22;7090;49.436;8.490;2023-06-14T08:41:21;27.20;1.00
14031;DHT22;7090;49.436;8.490;2023-06-14T08:43:48;26.70;23.50
14031;DHT22;7090;49.436;8.490;2023-06-14T08:46:15;26.20;1.00
14031;DHT22;7090;49.436;8.490;2023-06-14T08:48:48;26.40;1.00
14031;DHT22;7090;49.436;8.490;2023-06-14T08:51:18;26.40;1.00
14031;DHT22;7090;49.436;8.490;2023-06-14T08:53:44;26.60;1.00
14031;DHT22;7090;49.436;8.490;2023-06-14T08:56:11;26.70;1.00
14031;DHT22;7090;49.436;8.490;2023-06-14T08:58:42;26.70;1.00
14031;DHT22;7090;49.436;8.490;2023-06-14T09:01:11;27.20;1.00
14031;DHT22;7090;49.436;8.490;2023-06-14T09:03:42;26.30;1.00
14031;DHT22;7090;49.436;8.490;2023-06-14T09:06:08;26.70;41.90
14031;DHT22;7090;49.436;8.490;2023-06-14T09:08:42;27.60;94.50
14031;DHT22;7090;49.436;8.490;2023-06-14T09:11:10;28.70;39.20
14031;DHT22;7090;49.436;8.490;2023-06-14T09:13:36;28.60;20.80
14031;DHT22;7090;49.436;8.490;2023-06-14T09:16:02;28.10;1.00
14031;DHT22;7090;49.436;8.490;2023-06-14T09:18:41;28.30;99.90
14031;DHT22;7090;49.436;8.490;2023-06-14T09:21:09;27.90;99.90
14031;DHT22;7090;49.436;8.490;2023-06-14T09:23:44;26.80;3.10
14031;DHT22;7090;49.436;8.490;2023-06-14T09:26:14;25.80;1.00
14031;DHT22;7090;49.436;8.490;2023-06-14T09:28:48;25.20;1.00
14031;DHT22;7090;49.436;8.490;2023-06-14T09:31:16;25.60;1.00
14031;DHT22;7090;49.436;8.490;2023-06-14T09:33:43;26.70;1.00
14031;DHT22;7090;49.436;8.490;2023-06-14T09:36:18;26.60;1.00
14031;DHT22;7090;49.436;8.490;2023-06-14T09:38:56;25.30;1.00
14031;DHT22;7090;49.436;8.490;2023-06-14T09:43:58;25.20;1.00
14031;DHT22;7090;49.436;8.490;2023-06-14T09:46:27;26.30;1.00
14031;DHT22;7090;49.436;8.490;2023-06-14T09:48:53;27.00;1.00
14031;DHT22;7090;49.436;8.490;2023-06-14T09:51:19;27.70;1.00
14031;DHT22;7090;49.436;8.490;2023-06-14T09:53:47;28.00;1.00
14031;DHT22;7090;49.436;8.490;2023-06-14T09:56:22;28.10;1.00
14031;DHT22;7090;49.436;8.490;2023-06-14T09:58:50;28.50;1.00
14031;DHT22;7090;49.436;8.490;2023-06-14T10:01:20;27.40;1.00
14031;DHT22;7090;49.436;8.490;2023-06-14T10:03:46;26.10;1.00
14031;DHT22;7090;49.436;8.490;2023-06-14T10:06:12;26.70;1.00
14031;DHT22;7090;49.436;8.490;2023-06-14T10:08:38;27.30;1.00
14031;DHT22;7090;49.436;8.490;2023-06-14T10:11:05;26.90;1.00
14031;DHT22;7090;49.436;8.490;2023-06-14T10:13:32;26.10;1.00
14031;DHT22;7090;49.436;8.490;2023-06-14T10:16:12;27.20;1.00
14031;DHT22;7090;49.436;8.490;2023-06-14T10:18:50;27.50;1.00
14031;DHT22;7090;49.436;8.490;2023-06-14T10:21:32;28.60;1.00
14031;DHT22;7090;49.436;8.490;2023-06-14T10:24:03;28.40;29.50
14031;DHT22;7090;49.436;8.490;2023-06-14T10:26:30;27.40;1.00
14031;DHT22;7090;49.436;8.490;2023-06-14T10:29:00;26.70;1.00
14031;DHT22;7090;49.436;8.490;2023-06-14T10:31:46;27.70;1.00
14031;DHT22;7090;49.436;8.490;2023-06-14T10:34:13;27.00;1.00
14031;DHT22;7090;49.436;8.490;2023-06-14T10:36:46;27.50;1.00
14031;DHT22;7090;49.436;8.490;2023-06-14T10:39:15;28.30;1.00
14031;DHT22;7090;49.436;8.490;2023-06-14T10:41:41;29.30;2.40
14031;DHT22;7090;49.436;8.490;2023-06-14T10:46:39;29.60;1.00
14031;DHT22;7090;49.436;8.490;2023-06-14T10:49:05;29.60;1.00
14031;DHT22;7090;49.436;8.490;2023-06-14T10:51:39;29.50;1.00
14031;DHT22;7090;49.436;8.490;2023-06-14T10:54:14;28.80;54.80
14031;DHT22;7090;49.436;8.490;2023-06-14T10:56:47;26.80;1.00
14031;DHT22;7090;49.436;8.490;2023-06-14T10:59:14;27.30;1.00
14031;DHT22;7090;49.436;8.490;2023-06-14T11:04:50;28.30;1.00
14031;DHT22;7090;49.436;8.490;2023-06-14T11:10:33;29.60;31.10
14031;DHT22;7090;49.436;8.490;2023-06-14T11:13:02;29.80;1.00
14031;DHT22;7090;49.436;8.490;2023-06-14T11:15:32;30.20;85.70
14031;DHT22;7090;49.436;8.490;2023-06-14T11:18:00;30.20;54.70
14031;DHT22;7090;49.436;8.490;2023-06-14T11:20:30;29.50;18.80
14031;DHT22;7090;49.436;8.490;2023-06-14T11:22:56;30.10;31.20
14031;DHT22;7090;49.436;8.490;2023-06-14T11:25:22;30.70;75.50
14031;DHT22;7090;49.436;8.490;2023-06-14T11:27:49;31.00;1.00
14031;DHT22;7090;49.436;8.490;2023-06-14T11:30:16;30.80;4.00
14031;DHT22;7090;49.436;8.490;2023-06-14T11:32:42;30.00;99.90
14031;DHT22;7090;49.436;8.490;2023-06-14T11:35:08;29.50;37.40
14031;DHT22;7090;49.436;8.490;2023-06-14T11:37:36;29.00;1.00
14031;DHT22;7090;49.436;8.490;2023-06-14T11:40:03;29.50;1.00
14031;DHT22;7090;49.436;8.490;2023-06-14T11:42:33;30.20;1.00
14031;DHT22;7090;49.436;8.490;2023-06-14T11:44:59;29.70;1.00
14031;DHT22;7090;49.436;8.490;2023-06-14T11:47:30;30.20;1.00
14031;DHT22;7090;49.436;8.490;2023-06-14T11:49:58;30.70;1.00
14031;DHT22;7090;49.436;8.490;2023-06-14T11:52:24;30.00;1.00
14031;DHT22;7090;49.436;8.490;2023-06-14T11:54:49;28.30;1.00
14031;DHT22;7090;49.436;8.490;2023-06-14T11:57:17;28.30;1.00
14031;DHT22;7090;49.436;8.490;2023-06-14T11:59:44;29.50;99.90
14031;DHT22;7090;49.436;8.490;2023-06-14T12:02:17;30.10;99.90
14031;DHT22;7090;49.436;8.490;2023-06-14T12:04:43;30.80;99.90
14031;DHT22;7090;49.436;8.490;2023-06-14T12:07:10;31.90;99.90
14031;DHT22;7090;49.436;8.490;2023-06-14T12:09:41;30.70;1.00
14031;DHT22;7090;49.436;8.490;2023-06-14T12:12:09;29.50;1.00
14031;DHT22;7090;49.436;8.490;2023-06-14T12:14:36;28.80;1.00
14031;DHT22;7090;49.436;8.490;2023-06-14T12:17:08;28.80;1.00
14031;DHT22;7090;49.436;8.490;2023-06-14T12:19:41;29.30;1.00
14031;DHT22;7090;49.436;8.490;2023-06-14T12:22:09;30.40;1.00
14031;DHT22;7090;49.436;8.490;2023-06-14T12:24:35;30.00;1.00
14031;DHT22;7090;49.436;8.490;2023-06-14T12:27:01;29.70;1.00
14031;DHT22;7090;49.436;8.490;2023-06-14T12:29:30;29.30;1.00
14031;DHT22;7090;49.436;8.490;2023-06-14T12:31:56;29.00;1.00
14031;DHT22;7090;49.436;8.490;2023-06-14T12:34:25;29.10;1.00
14031;DHT22;7090;49.436;8.490;2023-06-14T12:36:55;29.70;1.00
14031;DHT22;7090;49.436;8.490;2023-06-14T12:39:21;30.30;1.00
14031;DHT22;7090;49.436;8.490;2023-06-14T12:41:47;31.10;1.00
14031;DHT22;7090;49.436;8.490;2023-06-14T12:44:14;31.30;1.00
14031;DHT22;7090;49.436;8.490;2023-06-14T12:46:41;31.10;1.00
14031;DHT22;7090;49.436;8.490;2023-06-14T12:49:10;30.90;1.00
14031;DHT22;7090;49.436;8.490;2023-06-14T12:51:37;30.80;1.00
14031;DHT22;7090;49.436;8.490;2023-06-14T12:54:03;29.20;1.00
14031;DHT22;7090;49.436;8.490;2023-06-14T12:56:28;29.00;1.00
14031;DHT22;7090;49.436;8.490;2023-06-14T12:58:54;30.00;1.00
14031;DHT22;7090;49.436;8.490;2023-06-14T13:01:20;30.50;1.00
14031;DHT22;7090;49.436;8.490;2023-06-14T13:03:49;30.70;1.00
14031;DHT22;7090;49.436;8.490;2023-06-14T13:06:17;31.00;1.00
14031;DHT22;7090;49.436;8.490;2023-06-14T13:08:42;30.70;1.00
14031;DHT22;7090;49.436;8.490;2023-06-14T13:11:08;29.70;1.00
14031;DHT22;7090;49.436;8.490;2023-06-14T13:13:34;30.10;1.00
14031;DHT22;7090;49.436;8.490;2023-06-14T13:15:59;30.60;1.00
14031;DHT22;7090;49.436;8.490;2023-06-14T13:18:25;30.40;1.00
14031;DHT22;7090;49.436;8.490;2023-06-14T13:20:51;30.40;1.00
14031;DHT22;7090;49.436;8.490;2023-06-14T13:23:17;30.30;1.00
14031;DHT22;7090;49.436;8.490;2023-06-14T13:25:43;29.70;1.00
14031;DHT22;7090;49.436;8.490;2023-06-14T13:28:09;29.50;1.00
14031;DHT22;7090;49.436;8.490;2023-06-14T13:30:34;29.90;1.00
14031;DHT22;7090;49.436;8.490;2023-06-14T13:33:01;29.20;1.00
14031;DHT22;7090;49.436;8.490;2023-06-14T13:35:27;28.30;1.00
14031;DHT22;7090;49.436;8.490;2023-06-14T13:37:53;28.60;99.90
14031;DHT22;7090;49.436;8.490;2023-06-14T13:40:18;28.50;99.90
14031;DHT22;7090;49.436;8.490;2023-06-14T13:42:44;30.20;99.90
14031;DHT22;7090;49.436;8.490;2023-06-14T13:45:11;29.90;99.90
14031;DHT22;7090;49.436;8.490;2023-06-14T13:47:37;29.80;1.00
14031;DHT22;7090;49.436;8.490;2023-06-14T13:50:04;29.40;1.00
14031;DHT22;7090;49.436;8.490;2023-06-14T13:52:29;28.50;99.90
14031;DHT22;7090;49.436;8.490;2023-06-14T13:54:55;28.40;99.90
14031;DHT22;7090;49.436;8.490;2023-06-14T13:57:21;27.80;99.90
14031;DHT22;7090;49.436;8.490;2023-06-14T13:59:46;27.70;99.90
14031;DHT22;7090;49.436;8.490;2023-06-14T14:02:12;28.00;99.90
14031;DHT22;7090;49.436;8.490;2023-06-14T14:04:39;27.70;99.90
14031;DHT22;7090;49.436;8.490;2023-06-14T14:07:05;26.20;99.90
14031;DHT22;7090;49.436;8.490;2023-06-14T14:09:31;26.10;99.90
14031;DHT22;7090;49.436;8.490;2023-06-14T14:11:58;26.10;99.90
14031;DHT22;7090;49.436;8.490;2023-06-14T14:14:24;25.90;99.90
14031;DHT22;7090;49.436;8.490;2023-06-14T14:16:50;25.40;99.90
14031;DHT22;7090;49.436;8.490;2023-06-14T14:19:23;25.50;99.90
14031;DHT22;7090;49.436;8.490;2023-06-14T14:21:48;25.50;99.90
14031;DHT22;7090;49.436;8.490;2023-06-14T14:24:14;25.90;99.90
14031;DHT22;7090;49.436;8.490;2023-06-14T14:26:40;25.80;99.90
14031;DHT22;7090;49.436;8.490;2023-06-14T14:29:05;26.70;99.90
14031;DHT22;7090;49.436;8.490;2023-06-14T14:31:31;27.60;99.90
14031;DHT22;7090;49.436;8.490;2023-06-14T14:33:57;27.80;99.90
14031;DHT22;7090;49.436;8.490;2023-06-14T14:36:23;28.90;99.90
14031;DHT22;7090;49.436;8.490;2023-06-14T14:38:48;29.10;99.90
14031;DHT22;7090;49.436;8.490;2023-06-14T14:41:14;29.40;99.90
14031;DHT22;7090;49.436;8.490;2023-06-14T14:43:40;29.00;99.90
14031;DHT22;7090;49.436;8.490;2023-06-14T14:46:05;28.90;99.90
14031;DHT22;7090;49.436;8.490;2023-06-14T14:48:31;29.60;1.00
14031;DHT22;7090;49.436;8.490;2023-06-14T14:50:57;29.20;99.90
14031;DHT22;7090;49.436;8.490;2023-06-14T14:53:23;29.70;99.90
14031;DHT22;7090;49.436;8.490;2023-06-14T14:55:49;28.60;99.90
14031;DHT22;7090;49.436;8.490;2023-06-14T14:58:14;27.70;99.90
14031;DHT22;7090;49.436;8.490;2023-06-14T15:00:46;27.50;99.90
14031;DHT22;7090;49.436;8.490;2023-06-14T15:03:13;28.40;99.90
14031;DHT22;7090;49.436;8.490;2023-06-14T15:05:38;29.90;1.00
14031;DHT22;7090;49.436;8.490;2023-06-14T15:08:04;30.40;1.00
14031;DHT22;7090;49.436;8.490;2023-06-14T15:10:35;29.90;99.90
14031;DHT22;7090;49.436;8.490;2023-06-14T15:13:01;28.60;99.90
14031;DHT22;7090;49.436;8.490;2023-06-14T15:15:27;28.90;99.90
14031;DHT22;7090;49.436;8.490;2023-06-14T15:17:52;27.50;99.90
14031;DHT22;7090;49.436;8.490;2023-06-14T15:20:18;26.50;99.90
14031;DHT22;7090;49.436;8.490;2023-06-14T15:22:43;26.80;99.90
14031;DHT22;7090;49.436;8.490;2023-06-14T15:25:09;26.20;99.90
14031;DHT22;7090;49.436;8.490;2023-06-14T15:27:34;26.30;99.90
14031;DHT22;7090;49.436;8.490;2023-06-14T15:30:01;26.40;99.90
14031;DHT22;7090;49.436;8.490;2023-06-14T15:32:26;26.60;99.90
14031;DHT22;7090;49.436;8.490;2023-06-14T15:34:52;26.10;99.90
14031;DHT22;7090;49.436;8.490;2023-06-14T15:37:18;26.00;99.90
14031;DHT22;7090;49.436;8.490;2023-06-14T15:39:43;25.90;99.90
14031;DHT22;7090;49.436;8.490;2023-06-14T15:42:09;26.50;99.90
14031;DHT22;7090;49.436;8.490;2023-06-14T15:44:35;25.90;99.90
14031;DHT22;7090;49.436;8.490;2023-06-14T15:47:02;26.60;99.90
14031;DHT22;7090;49.436;8.490;2023-06-14T15:49:27;27.60;99.90
14031;DHT22;7090;49.436;8.490;2023-06-14T15:51:53;28.20;99.90
14031;DHT22;7090;49.436;8.490;2023-06-14T15:54:18;27.60;99.90
14031;DHT22;7090;49.436;8.490;2023-06-14T15:56:44;27.60;99.90
14031;DHT22;7090;49.436;8.490;2023-06-14T15:59:10;28.60;99.90
14031;DHT22;7090;49.436;8.490;2023-06-14T16:01:35;27.20;99.90
14031;DHT22;7090;49.436;8.490;2023-06-14T16:04:01;27.30;99.90